ANA627 RJTT-RJFK
Flight info
| Callsign | ANA627 |
|---|---|
| Flight time | 1h 35m |
| Altitude | 36000 |
| Route | LAXAS4 LAXAS Y56 TOHME Y54 TURFY Y24 SUC Y757 SPICA |
| Aircraft | A21N/M-V/N |
Departure
| Time | 2026-05-09 12:30 |
|---|---|
| Airport | Tokyo Haneda International Airport (RJTT) |
Arrival
| Time | 2026-05-09 14:05 |
|---|---|
| Airport | Kagoshima Airport (RJFK) |
| Time | Latitude | Longitude | Altitude | Speed | Heading |
|---|---|---|---|---|---|
| 2026-05-09 12:03 | 35.55321 | 139.78834 | 33 ft | 0 kts | 240° |
| 2026-05-09 12:19 | 35.55329 | 139.78851 | 33 ft | 2 kts | 239° |
| 2026-05-09 12:19 | 35.55337 | 139.78868 | 32 ft | 2 kts | 238° |
| 2026-05-09 12:19 | 35.55346 | 139.78885 | 32 ft | 2 kts | 235° |
| 2026-05-09 12:19 | 35.55357 | 139.78901 | 32 ft | 2 kts | 225° |
| 2026-05-09 12:20 | 35.55371 | 139.78911 | 33 ft | 2 kts | 171° |
| 2026-05-09 12:20 | 35.55379 | 139.78907 | 33 ft | 0 kts | 149° |
| 2026-05-09 12:21 | 35.55375 | 139.78911 | 33 ft | 0 kts | 149° |
| 2026-05-09 12:23 | 35.55369 | 139.78915 | 33 ft | 2 kts | 149° |
| 2026-05-09 12:23 | 35.55366 | 139.78917 | 33 ft | 2 kts | 149° |
| 2026-05-09 12:24 | 35.55339 | 139.78937 | 33 ft | 8 kts | 149° |
| 2026-05-09 12:24 | 35.55272 | 139.78984 | 33 ft | 13 kts | 150° |
| 2026-05-09 12:24 | 35.55187 | 139.79045 | 33 ft | 15 kts | 150° |
| 2026-05-09 12:24 | 35.55087 | 139.79115 | 33 ft | 15 kts | 150° |
| 2026-05-09 12:25 | 35.55036 | 139.79182 | 33 ft | 12 kts | 96° |
| 2026-05-09 12:25 | 35.55065 | 139.79282 | 32 ft | 10 kts | 63° |
| 2026-05-09 12:25 | 35.55085 | 139.79328 | 31 ft | 5 kts | 60° |
| 2026-05-09 12:25 | 35.55109 | 139.79379 | 30 ft | 9 kts | 60° |
| 2026-05-09 12:26 | 35.55089 | 139.79465 | 33 ft | 14 kts | 145° |
| 2026-05-09 12:26 | 35.54994 | 139.79532 | 32 ft | 17 kts | 150° |
| 2026-05-09 12:26 | 35.54885 | 139.79608 | 31 ft | 19 kts | 150° |
| 2026-05-09 12:26 | 35.54772 | 139.79687 | 31 ft | 12 kts | 150° |
| 2026-05-09 12:27 | 35.54688 | 139.79747 | 30 ft | 16 kts | 149° |
| 2026-05-09 12:27 | 35.54581 | 139.79824 | 30 ft | 19 kts | 149° |
| 2026-05-09 12:27 | 35.54485 | 139.79893 | 28 ft | 14 kts | 149° |
| 2026-05-09 12:27 | 35.54392 | 139.79960 | 27 ft | 17 kts | 150° |
| 2026-05-09 12:28 | 35.54285 | 139.80035 | 27 ft | 16 kts | 150° |
| 2026-05-09 12:28 | 35.54219 | 139.80081 | 31 ft | 10 kts | 149° |
| 2026-05-09 12:28 | 35.54195 | 139.80155 | 28 ft | 5 kts | 66° |
| 2026-05-09 12:28 | 35.54208 | 139.80191 | 29 ft | 0 kts | 60° |
| 2026-05-09 12:29 | 35.54218 | 139.80213 | 30 ft | 6 kts | 60° |
| 2026-05-09 12:29 | 35.54262 | 139.80275 | 33 ft | 14 kts | 23° |
| 2026-05-09 12:29 | 35.54383 | 139.80215 | 33 ft | 36 kts | 329° |
| 2026-05-09 12:29 | 35.54896 | 139.79852 | 35 ft | 132 kts | 329° |
| 2026-05-09 12:30 | 35.55887 | 139.79142 | 218 ft | 181 kts | 329° |
| 2026-05-09 12:30 | 35.56936 | 139.78400 | 1270 ft | 164 kts | 331° |
| 2026-05-09 12:30 | 35.59140 | 139.78856 | 2519 ft | 202 kts | 49° |
| 2026-05-09 12:31 | 35.59553 | 139.80567 | 3103 ft | 223 kts | 88° |
| 2026-05-09 12:31 | 35.58296 | 139.84322 | 4206 ft | 252 kts | 116° |
| 2026-05-09 12:31 | 35.57512 | 139.86298 | 4702 ft | 264 kts | 116° |
| 2026-05-09 12:32 | 35.56713 | 139.88371 | 5217 ft | 271 kts | 116° |
| 2026-05-09 12:32 | 35.55913 | 139.90482 | 5840 ft | 275 kts | 116° |
| 2026-05-09 12:32 | 35.55027 | 139.92558 | 6499 ft | 275 kts | 126° |
| 2026-05-09 12:32 | 35.53648 | 139.94160 | 7068 ft | 275 kts | 150° |
| 2026-05-09 12:33 | 35.51851 | 139.94915 | 7606 ft | 275 kts | 175° |
| 2026-05-09 12:33 | 35.49954 | 139.94762 | 8158 ft | 274 kts | 193° |
| 2026-05-09 12:33 | 35.48158 | 139.94306 | 8676 ft | 278 kts | 195° |
| 2026-05-09 12:33 | 35.46273 | 139.93700 | 9474 ft | 281 kts | 205° |
| 2026-05-09 12:34 | 35.44604 | 139.92477 | 10362 ft | 286 kts | 224° |
| 2026-05-09 12:34 | 35.43168 | 139.90659 | 10773 ft | 308 kts | 231° |
| 2026-05-09 12:34 | 35.41690 | 139.88621 | 11176 ft | 331 kts | 231° |
| 2026-05-09 12:34 | 35.40103 | 139.86452 | 11619 ft | 351 kts | 231° |
| 2026-05-09 12:35 | 35.38488 | 139.84264 | 12261 ft | 362 kts | 231° |
| 2026-05-09 12:35 | 35.36724 | 139.81909 | 13104 ft | 368 kts | 231° |
| 2026-05-09 12:35 | 35.34949 | 139.79545 | 13946 ft | 373 kts | 231° |
| 2026-05-09 12:35 | 35.33208 | 139.77239 | 14719 ft | 375 kts | 232° |
| 2026-05-09 12:36 | 35.31399 | 139.74878 | 15555 ft | 378 kts | 230° |
| 2026-05-09 12:36 | 35.29424 | 139.72714 | 16405 ft | 381 kts | 226° |
| 2026-05-09 12:36 | 35.27404 | 139.70609 | 17275 ft | 383 kts | 226° |
| 2026-05-09 12:36 | 35.25369 | 139.68490 | 18105 ft | 385 kts | 226° |
| 2026-05-09 12:37 | 35.23330 | 139.66362 | 18839 ft | 386 kts | 227° |
| 2026-05-09 12:37 | 35.21285 | 139.64227 | 19587 ft | 387 kts | 227° |
| 2026-05-09 12:37 | 35.19232 | 139.62092 | 20337 ft | 387 kts | 227° |
| 2026-05-09 12:37 | 35.17176 | 139.59958 | 21074 ft | 387 kts | 227° |
| 2026-05-09 12:38 | 35.15128 | 139.57828 | 21792 ft | 388 kts | 227° |
| 2026-05-09 12:38 | 35.13076 | 139.55689 | 22502 ft | 388 kts | 228° |
| 2026-05-09 12:38 | 35.11032 | 139.53539 | 23210 ft | 387 kts | 229° |
| 2026-05-09 12:38 | 35.09204 | 139.51157 | 23859 ft | 381 kts | 237° |
| 2026-05-09 12:39 | 35.07769 | 139.48477 | 24400 ft | 376 kts | 245° |
| 2026-05-09 12:39 | 35.06745 | 139.45559 | 24924 ft | 374 kts | 253° |
| 2026-05-09 12:39 | 35.06106 | 139.42471 | 25427 ft | 376 kts | 258° |
| 2026-05-09 12:39 | 35.05596 | 139.39337 | 25915 ft | 377 kts | 258° |
| 2026-05-09 12:40 | 35.05088 | 139.36187 | 26382 ft | 379 kts | 258° |
| 2026-05-09 12:40 | 35.04567 | 139.32988 | 26900 ft | 379 kts | 257° |
| 2026-05-09 12:40 | 35.04050 | 139.29855 | 27567 ft | 375 kts | 257° |
| 2026-05-09 12:40 | 35.03540 | 139.26788 | 28224 ft | 371 kts | 257° |
| 2026-05-09 12:41 | 35.03019 | 139.23679 | 28876 ft | 368 kts | 256° |
| 2026-05-09 12:41 | 35.02513 | 139.20633 | 29471 ft | 366 kts | 256° |
| 2026-05-09 12:41 | 35.02001 | 139.17606 | 30115 ft | 362 kts | 256° |
| 2026-05-09 12:41 | 35.01498 | 139.14607 | 30625 ft | 359 kts | 255° |
| 2026-05-09 12:42 | 35.01001 | 139.11668 | 31134 ft | 356 kts | 255° |
| 2026-05-09 12:42 | 35.00497 | 139.08676 | 31624 ft | 354 kts | 254° |
| 2026-05-09 12:42 | 35.00000 | 139.05747 | 31972 ft | 351 kts | 253° |
| 2026-05-09 12:42 | 34.99507 | 139.02819 | 32094 ft | 354 kts | 254° |
| 2026-05-09 12:43 | 34.99013 | 138.99884 | 32117 ft | 354 kts | 254° |
| 2026-05-09 12:43 | 34.98516 | 138.93898 | 32103 ft | 358 kts | 260° |
| 2026-05-09 12:44 | 34.98194 | 138.87832 | 32099 ft | 358 kts | 260° |
| 2026-05-09 12:44 | 34.97866 | 138.81787 | 32110 ft | 357 kts | 260° |
| 2026-05-09 12:45 | 34.97544 | 138.75745 | 32093 ft | 357 kts | 260° |
| 2026-05-09 12:45 | 34.97231 | 138.69697 | 32088 ft | 357 kts | 260° |
| 2026-05-09 12:46 | 34.96908 | 138.63661 | 32086 ft | 357 kts | 260° |
| 2026-05-09 12:46 | 34.96629 | 138.58638 | 32086 ft | 356 kts | 260° |
| 2026-05-09 12:47 | 34.96278 | 138.52576 | 32086 ft | 356 kts | 260° |
| 2026-05-09 12:47 | 34.95942 | 138.46574 | 32088 ft | 356 kts | 260° |
| 2026-05-09 12:48 | 34.95611 | 138.40511 | 32086 ft | 356 kts | 260° |
| 2026-05-09 12:48 | 34.95280 | 138.34494 | 32085 ft | 355 kts | 260° |
| 2026-05-09 12:49 | 34.94937 | 138.28527 | 32096 ft | 355 kts | 260° |
| 2026-05-09 12:49 | 34.94592 | 138.22534 | 32087 ft | 354 kts | 260° |
| 2026-05-09 12:50 | 34.94244 | 138.16557 | 32092 ft | 353 kts | 260° |
| 2026-05-09 12:50 | 34.93887 | 138.10585 | 32093 ft | 353 kts | 260° |
| 2026-05-09 12:51 | 34.93545 | 138.04605 | 32061 ft | 353 kts | 260° |
| 2026-05-09 12:51 | 34.93200 | 137.98638 | 32093 ft | 353 kts | 260° |
| 2026-05-09 12:52 | 34.92840 | 137.92666 | 32098 ft | 353 kts | 260° |
| 2026-05-09 12:52 | 34.92477 | 137.86702 | 32111 ft | 353 kts | 260° |
| 2026-05-09 12:53 | 34.92115 | 137.80733 | 32103 ft | 353 kts | 260° |
| 2026-05-09 12:53 | 34.91752 | 137.74781 | 32124 ft | 353 kts | 260° |
| 2026-05-09 12:54 | 34.91345 | 137.68835 | 32112 ft | 350 kts | 258° |
| 2026-05-09 12:54 | 34.90031 | 137.63174 | 32113 ft | 347 kts | 249° |
| 2026-05-09 12:55 | 34.88350 | 137.57668 | 32116 ft | 347 kts | 249° |
| 2026-05-09 12:55 | 34.86688 | 137.52160 | 32106 ft | 347 kts | 249° |
| 2026-05-09 12:56 | 34.85033 | 137.46631 | 32127 ft | 347 kts | 249° |
| 2026-05-09 12:56 | 34.83443 | 137.41070 | 32131 ft | 348 kts | 250° |
| 2026-05-09 12:57 | 34.81859 | 137.35496 | 32124 ft | 348 kts | 250° |
| 2026-05-09 12:57 | 34.80276 | 137.29959 | 32126 ft | 349 kts | 250° |
| 2026-05-09 12:58 | 34.78656 | 137.24375 | 32125 ft | 350 kts | 249° |
| 2026-05-09 12:58 | 34.77045 | 137.18742 | 32127 ft | 350 kts | 250° |
| 2026-05-09 12:59 | 34.75439 | 137.13173 | 32131 ft | 351 kts | 250° |
| 2026-05-09 12:59 | 34.73820 | 137.07556 | 32132 ft | 352 kts | 249° |
| 2026-05-09 13:00 | 34.72191 | 137.01929 | 32138 ft | 353 kts | 249° |
| 2026-05-09 13:00 | 34.70419 | 136.96349 | 32136 ft | 354 kts | 245° |
| 2026-05-09 13:01 | 34.67620 | 136.91400 | 32141 ft | 358 kts | 234° |
| 2026-05-09 13:01 | 34.64519 | 136.86667 | 32138 ft | 358 kts | 235° |
| 2026-05-09 13:02 | 34.61441 | 136.81907 | 32146 ft | 359 kts | 235° |
| 2026-05-09 13:02 | 34.58355 | 136.77156 | 32145 ft | 359 kts | 235° |
| 2026-05-09 13:03 | 34.55260 | 136.72388 | 32144 ft | 359 kts | 234° |
| 2026-05-09 13:03 | 34.52147 | 136.67596 | 32150 ft | 360 kts | 235° |
| 2026-05-09 13:04 | 34.49065 | 136.62846 | 32162 ft | 361 kts | 235° |
| 2026-05-09 13:04 | 34.45954 | 136.58066 | 32153 ft | 361 kts | 234° |
| 2026-05-09 13:05 | 34.42841 | 136.53297 | 32173 ft | 361 kts | 235° |
| 2026-05-09 13:05 | 34.39721 | 136.48518 | 32176 ft | 362 kts | 235° |
| 2026-05-09 13:06 | 34.36594 | 136.43732 | 32187 ft | 363 kts | 235° |
| 2026-05-09 13:06 | 34.33459 | 136.38939 | 32170 ft | 364 kts | 235° |
| 2026-05-09 13:07 | 34.30521 | 136.34471 | 32160 ft | 365 kts | 234° |
| 2026-05-09 13:07 | 34.27356 | 136.29667 | 32177 ft | 365 kts | 234° |
| 2026-05-09 13:08 | 34.24201 | 136.24842 | 32164 ft | 366 kts | 235° |
| 2026-05-09 13:08 | 34.21015 | 136.20004 | 32198 ft | 365 kts | 234° |
| 2026-05-09 13:09 | 34.17826 | 136.15158 | 32155 ft | 367 kts | 234° |
| 2026-05-09 13:09 | 34.14634 | 136.10332 | 32145 ft | 368 kts | 234° |
| 2026-05-09 13:10 | 34.11437 | 136.05488 | 32165 ft | 370 kts | 234° |
| 2026-05-09 13:10 | 34.08227 | 136.00627 | 32167 ft | 370 kts | 234° |
| 2026-05-09 13:11 | 34.04997 | 135.95776 | 32160 ft | 371 kts | 234° |
| 2026-05-09 13:11 | 34.01767 | 135.90906 | 32163 ft | 372 kts | 234° |
| 2026-05-09 13:12 | 33.98532 | 135.86033 | 32199 ft | 372 kts | 234° |
| 2026-05-09 13:12 | 33.95292 | 135.81167 | 32181 ft | 373 kts | 234° |
| 2026-05-09 13:13 | 33.92033 | 135.76288 | 32138 ft | 373 kts | 234° |
| 2026-05-09 13:13 | 33.88779 | 135.71422 | 32174 ft | 375 kts | 234° |
| 2026-05-09 13:14 | 33.85494 | 135.66526 | 32141 ft | 375 kts | 234° |
| 2026-05-09 13:16 | 33.72365 | 135.46897 | 32187 ft | 378 kts | 234° |
| 2026-05-09 13:16 | 33.69055 | 135.41972 | 32172 ft | 379 kts | 234° |
| 2026-05-09 13:17 | 33.65739 | 135.37052 | 32170 ft | 379 kts | 234° |
| 2026-05-09 13:17 | 33.62402 | 135.32117 | 32168 ft | 380 kts | 234° |
| 2026-05-09 13:18 | 33.59063 | 135.27191 | 32166 ft | 381 kts | 234° |
| 2026-05-09 13:18 | 33.55712 | 135.22250 | 32167 ft | 382 kts | 234° |
| 2026-05-09 13:19 | 33.52373 | 135.17289 | 32172 ft | 383 kts | 234° |
| 2026-05-09 13:19 | 33.49006 | 135.12320 | 32169 ft | 384 kts | 234° |
| 2026-05-09 13:20 | 33.45637 | 135.07357 | 32171 ft | 384 kts | 234° |
| 2026-05-09 13:20 | 33.42254 | 135.02380 | 32175 ft | 385 kts | 234° |
| 2026-05-09 13:21 | 33.38866 | 134.97406 | 32176 ft | 386 kts | 234° |
| 2026-05-09 13:21 | 33.36053 | 134.93262 | 32179 ft | 386 kts | 234° |
| 2026-05-09 13:22 | 33.32074 | 134.87440 | 32178 ft | 387 kts | 234° |
| 2026-05-09 13:22 | 33.29249 | 134.83284 | 32175 ft | 388 kts | 234° |
| 2026-05-09 13:23 | 33.20696 | 134.70784 | 32177 ft | 389 kts | 234° |
| 2026-05-09 13:24 | 33.17328 | 134.65718 | 32174 ft | 388 kts | 238° |
| 2026-05-09 13:24 | 33.15101 | 134.59906 | 32185 ft | 387 kts | 252° |
| 2026-05-09 13:25 | 33.13614 | 134.53732 | 32187 ft | 387 kts | 253° |
| 2026-05-09 13:26 | 33.11356 | 134.44470 | 32185 ft | 388 kts | 253° |
| 2026-05-09 13:26 | 33.09835 | 134.38296 | 32183 ft | 388 kts | 253° |
| 2026-05-09 13:27 | 33.08302 | 134.32115 | 32184 ft | 389 kts | 253° |
| 2026-05-09 13:27 | 33.06777 | 134.25932 | 32186 ft | 389 kts | 253° |
| 2026-05-09 13:28 | 33.05257 | 134.19740 | 32189 ft | 389 kts | 253° |
| 2026-05-09 13:28 | 33.03754 | 134.13535 | 32183 ft | 389 kts | 253° |
| 2026-05-09 13:29 | 33.02247 | 134.07341 | 32185 ft | 390 kts | 254° |
| 2026-05-09 13:29 | 33.00749 | 134.01141 | 32187 ft | 390 kts | 254° |
| 2026-05-09 13:30 | 32.99238 | 133.94936 | 32187 ft | 390 kts | 254° |
| 2026-05-09 13:30 | 32.97722 | 133.88678 | 32185 ft | 390 kts | 254° |
| 2026-05-09 13:31 | 32.96190 | 133.82468 | 32182 ft | 391 kts | 253° |
| 2026-05-09 13:31 | 32.94668 | 133.76299 | 32182 ft | 391 kts | 254° |
| 2026-05-09 13:32 | 32.93134 | 133.70084 | 32187 ft | 391 kts | 254° |
| 2026-05-09 13:32 | 32.90839 | 133.60745 | 32188 ft | 392 kts | 254° |
| 2026-05-09 13:33 | 32.89295 | 133.54510 | 32183 ft | 393 kts | 254° |
| 2026-05-09 13:33 | 32.87736 | 133.48277 | 32184 ft | 393 kts | 254° |
| 2026-05-09 13:34 | 32.86186 | 133.42034 | 32173 ft | 394 kts | 254° |
| 2026-05-09 13:34 | 32.84623 | 133.35799 | 32183 ft | 394 kts | 254° |
| 2026-05-09 13:35 | 32.83066 | 133.29546 | 32189 ft | 393 kts | 254° |
| 2026-05-09 13:35 | 32.81499 | 133.23319 | 32177 ft | 394 kts | 254° |
| 2026-05-09 13:36 | 32.79927 | 133.17075 | 32185 ft | 394 kts | 254° |
| 2026-05-09 13:36 | 32.78362 | 133.10832 | 32186 ft | 394 kts | 254° |
| 2026-05-09 13:37 | 32.76775 | 133.04595 | 32186 ft | 394 kts | 254° |
| 2026-05-09 13:37 | 32.74898 | 132.98482 | 32183 ft | 397 kts | 245° |
| 2026-05-09 13:38 | 32.72098 | 132.92866 | 32185 ft | 391 kts | 242° |
| 2026-05-09 13:38 | 32.69260 | 132.87317 | 32184 ft | 398 kts | 242° |
| 2026-05-09 13:39 | 32.66383 | 132.81695 | 32184 ft | 399 kts | 242° |
| 2026-05-09 13:39 | 32.63509 | 132.76057 | 32183 ft | 399 kts | 242° |
| 2026-05-09 13:40 | 32.60622 | 132.70425 | 32184 ft | 400 kts | 242° |
| 2026-05-09 13:40 | 32.57718 | 132.64802 | 32184 ft | 397 kts | 242° |
| 2026-05-09 13:41 | 32.54847 | 132.59225 | 32181 ft | 400 kts | 242° |
| 2026-05-09 13:41 | 32.51930 | 132.53589 | 32182 ft | 402 kts | 242° |
| 2026-05-09 13:42 | 32.49036 | 132.47968 | 32183 ft | 402 kts | 242° |
| 2026-05-09 13:42 | 32.46120 | 132.42328 | 32184 ft | 402 kts | 242° |
| 2026-05-09 13:43 | 32.43196 | 132.36685 | 32182 ft | 400 kts | 242° |
| 2026-05-09 13:43 | 32.40341 | 132.31112 | 32179 ft | 399 kts | 242° |
| 2026-05-09 13:44 | 32.37435 | 132.25461 | 32184 ft | 403 kts | 242° |
| 2026-05-09 13:44 | 32.34499 | 132.19813 | 32186 ft | 403 kts | 242° |
| 2026-05-09 13:45 | 32.31565 | 132.14166 | 32185 ft | 403 kts | 242° |
| 2026-05-09 13:45 | 32.28622 | 132.08528 | 32187 ft | 402 kts | 242° |
| 2026-05-09 13:46 | 32.25725 | 132.02956 | 32178 ft | 398 kts | 242° |
| 2026-05-09 13:46 | 32.22827 | 131.97411 | 31106 ft | 394 kts | 242° |
| 2026-05-09 13:47 | 32.21385 | 131.94643 | 29797 ft | 399 kts | 242° |
| 2026-05-09 13:47 | 32.19913 | 131.91836 | 28293 ft | 405 kts | 242° |
| 2026-05-09 13:47 | 32.18418 | 131.88987 | 26812 ft | 411 kts | 242° |
| 2026-05-09 13:47 | 32.16910 | 131.86113 | 25563 ft | 412 kts | 242° |
| 2026-05-09 13:48 | 32.15407 | 131.83239 | 24522 ft | 409 kts | 242° |
| 2026-05-09 13:48 | 32.13920 | 131.80406 | 23515 ft | 405 kts | 241° |
| 2026-05-09 13:48 | 32.12438 | 131.77595 | 22344 ft | 401 kts | 241° |
| 2026-05-09 13:48 | 32.10972 | 131.74803 | 21218 ft | 399 kts | 241° |
| 2026-05-09 13:49 | 32.09515 | 131.72030 | 20121 ft | 397 kts | 240° |
| 2026-05-09 13:49 | 32.08054 | 131.69266 | 19063 ft | 397 kts | 240° |
| 2026-05-09 13:49 | 32.06595 | 131.66500 | 17983 ft | 396 kts | 240° |
| 2026-05-09 13:49 | 32.05143 | 131.63749 | 16911 ft | 394 kts | 240° |
| 2026-05-09 13:50 | 32.03703 | 131.61017 | 15915 ft | 391 kts | 240° |
| 2026-05-09 13:50 | 32.02275 | 131.58307 | 14986 ft | 388 kts | 239° |
| 2026-05-09 13:50 | 32.00847 | 131.55615 | 14063 ft | 386 kts | 239° |
| 2026-05-09 13:50 | 31.99434 | 131.52948 | 13107 ft | 383 kts | 239° |
| 2026-05-09 13:51 | 31.98047 | 131.50329 | 12209 ft | 378 kts | 239° |
| 2026-05-09 13:51 | 31.96663 | 131.47713 | 11415 ft | 373 kts | 239° |
| 2026-05-09 13:51 | 31.95304 | 131.45147 | 11036 ft | 356 kts | 239° |
| 2026-05-09 13:51 | 31.94041 | 131.42759 | 10760 ft | 339 kts | 239° |
| 2026-05-09 13:52 | 31.92816 | 131.40467 | 10490 ft | 323 kts | 239° |
| 2026-05-09 13:52 | 31.91643 | 131.38277 | 10221 ft | 310 kts | 239° |
| 2026-05-09 13:52 | 31.90520 | 131.36181 | 9982 ft | 297 kts | 239° |
| 2026-05-09 13:52 | 31.89431 | 131.34148 | 9555 ft | 291 kts | 239° |
| 2026-05-09 13:53 | 31.88357 | 131.32143 | 9063 ft | 289 kts | 238° |
| 2026-05-09 13:53 | 31.87290 | 131.30147 | 8566 ft | 287 kts | 238° |
| 2026-05-09 13:53 | 31.86234 | 131.28169 | 8089 ft | 285 kts | 238° |
| 2026-05-09 13:53 | 31.85185 | 131.26201 | 7611 ft | 283 kts | 238° |
| 2026-05-09 13:54 | 31.84146 | 131.24251 | 7158 ft | 280 kts | 238° |
| 2026-05-09 13:54 | 31.83115 | 131.22320 | 6738 ft | 277 kts | 237° |
| 2026-05-09 13:54 | 31.82092 | 131.20406 | 6279 ft | 276 kts | 237° |
| 2026-05-09 13:54 | 31.81070 | 131.18499 | 5770 ft | 275 kts | 237° |
| 2026-05-09 13:55 | 31.80049 | 131.16599 | 5280 ft | 275 kts | 238° |
| 2026-05-09 13:55 | 31.79036 | 131.14714 | 4985 ft | 272 kts | 238° |
| 2026-05-09 13:55 | 31.78025 | 131.12834 | 4817 ft | 272 kts | 238° |
| 2026-05-09 13:55 | 31.77013 | 131.10951 | 4715 ft | 271 kts | 238° |
| 2026-05-09 13:56 | 31.76007 | 131.09082 | 4639 ft | 270 kts | 238° |
| 2026-05-09 13:56 | 31.75005 | 131.07221 | 4530 ft | 269 kts | 238° |
| 2026-05-09 13:56 | 31.74008 | 131.05365 | 4396 ft | 267 kts | 238° |
| 2026-05-09 13:56 | 31.73020 | 131.03525 | 4278 ft | 266 kts | 238° |
| 2026-05-09 13:57 | 31.72033 | 131.01687 | 4151 ft | 265 kts | 238° |
| 2026-05-09 13:57 | 31.71053 | 130.99867 | 4077 ft | 264 kts | 238° |
| 2026-05-09 13:57 | 31.70073 | 130.98049 | 4081 ft | 262 kts | 238° |
| 2026-05-09 13:57 | 31.69135 | 130.96306 | 4085 ft | 242 kts | 238° |
| 2026-05-09 13:58 | 31.68270 | 130.94694 | 4088 ft | 224 kts | 238° |
| 2026-05-09 13:58 | 31.67470 | 130.93206 | 4087 ft | 207 kts | 238° |
| 2026-05-09 13:58 | 31.66827 | 130.91797 | 4080 ft | 183 kts | 252° |
| 2026-05-09 13:58 | 31.66591 | 130.90416 | 4046 ft | 163 kts | 259° |
| 2026-05-09 13:59 | 31.66392 | 130.89211 | 3913 ft | 143 kts | 258° |
| 2026-05-09 13:59 | 31.66186 | 130.88090 | 3832 ft | 139 kts | 258° |
| 2026-05-09 13:59 | 31.66006 | 130.86987 | 3714 ft | 137 kts | 261° |
| 2026-05-09 13:59 | 31.66039 | 130.85890 | 3570 ft | 136 kts | 290° |
| 2026-05-09 14:00 | 31.66380 | 130.84863 | 3436 ft | 134 kts | 289° |
| 2026-05-09 14:00 | 31.66478 | 130.84527 | 3394 ft | 134 kts | 288° |
| 2026-05-09 14:00 | 31.67001 | 130.82798 | 3124 ft | 134 kts | 289° |
| 2026-05-09 14:00 | 31.67319 | 130.81773 | 2964 ft | 134 kts | 289° |
| 2026-05-09 14:01 | 31.67645 | 130.80779 | 2824 ft | 129 kts | 293° |
| 2026-05-09 14:01 | 31.68244 | 130.80058 | 2791 ft | 125 kts | 326° |
| 2026-05-09 14:01 | 31.69015 | 130.79588 | 2805 ft | 124 kts | 328° |
| 2026-05-09 14:01 | 31.69768 | 130.79091 | 2805 ft | 124 kts | 328° |
| 2026-05-09 14:02 | 31.70520 | 130.78585 | 2803 ft | 124 kts | 328° |
| 2026-05-09 14:02 | 31.71027 | 130.78243 | 2753 ft | 124 kts | 328° |
| 2026-05-09 14:02 | 31.71773 | 130.77738 | 2587 ft | 123 kts | 328° |
| 2026-05-09 14:02 | 31.72518 | 130.77234 | 2426 ft | 124 kts | 328° |
| 2026-05-09 14:03 | 31.73259 | 130.76727 | 2252 ft | 123 kts | 327° |
| 2026-05-09 14:03 | 31.73986 | 130.76226 | 2094 ft | 123 kts | 327° |
| 2026-05-09 14:03 | 31.74713 | 130.75700 | 1965 ft | 122 kts | 326° |
| 2026-05-09 14:03 | 31.75440 | 130.75175 | 1824 ft | 123 kts | 328° |
| 2026-05-09 14:04 | 31.76188 | 130.74688 | 1709 ft | 123 kts | 331° |
| 2026-05-09 14:04 | 31.76942 | 130.74216 | 1480 ft | 122 kts | 330° |
| 2026-05-09 14:04 | 31.77687 | 130.73731 | 1282 ft | 122 kts | 329° |
| 2026-05-09 14:04 | 31.78422 | 130.73229 | 1098 ft | 123 kts | 328° |
| 2026-05-09 14:05 | 31.79155 | 130.72732 | 950 ft | 122 kts | 329° |
| 2026-05-09 14:05 | 31.79860 | 130.72255 | 887 ft | 103 kts | 330° |
| 2026-05-09 14:05 | 31.80197 | 130.72029 | 897 ft | 22 kts | 330° |
| 2026-05-09 14:05 | 31.80343 | 130.71931 | 902 ft | 26 kts | 330° |
| 2026-05-09 14:06 | 31.80464 | 130.71851 | 904 ft | 20 kts | 330° |
| 2026-05-09 14:06 | 31.80505 | 130.71745 | 903 ft | 17 kts | 244° |
| 2026-05-09 14:06 | 31.80440 | 130.71663 | 902 ft | 14 kts | 191° |
| 2026-05-09 14:06 | 31.80355 | 130.71701 | 902 ft | 8 kts | 149° |
| 2026-05-09 14:07 | 31.80306 | 130.71659 | 902 ft | 11 kts | 240° |
| 2026-05-09 14:07 | 31.80274 | 130.71594 | 901 ft | 8 kts | 240° |
| 2026-05-09 14:07 | 31.80267 | 130.71579 | 900 ft | 0 kts | 240° |